createdAt,value
2022-10-22T00:02:20.522Z,14.40
2022-10-22T00:04:49.292Z,15.02
2022-10-22T00:07:18.317Z,14.10
2022-10-22T00:09:45.224Z,14.25
2022-10-22T00:12:12.456Z,13.57
2022-10-22T00:14:39.357Z,14.50
2022-10-22T00:17:08.086Z,13.70
2022-10-22T00:19:38.526Z,14.50
2022-10-22T00:22:08.391Z,14.27
2022-10-22T00:24:35.831Z,14.45
2022-10-22T00:27:02.555Z,14.85
2022-10-22T00:29:29.467Z,15.02
2022-10-22T00:34:27.366Z,14.20
2022-10-22T00:36:55.018Z,13.65
2022-10-22T00:39:23.714Z,14.45
2022-10-22T00:41:52.214Z,14.13
2022-10-22T00:45:06.422Z,14.52
2022-10-22T00:48:05.214Z,14.00
2022-10-22T00:50:34.690Z,12.88
2022-10-22T00:53:03.599Z,13.63
2022-10-22T00:55:31.365Z,13.48
2022-10-22T00:57:58.751Z,13.65
2022-10-22T01:00:26.124Z,13.60
2022-10-22T01:02:54.553Z,14.82
2022-10-22T01:05:21.416Z,14.07
2022-10-22T01:07:51.333Z,15.02
2022-10-22T01:10:39.674Z,15.15
2022-10-22T01:13:11.947Z,13.40
2022-10-22T01:15:59.226Z,15.20
2022-10-22T01:18:38.231Z,13.80
2022-10-22T01:21:29.215Z,13.73
2022-10-22T01:24:07.695Z,15.15
2022-10-22T01:26:52.865Z,14.63
2022-10-22T01:29:27.566Z,14.77
2022-10-22T01:32:01.635Z,14.45
2022-10-22T01:34:30.241Z,14.05
2022-10-22T01:36:57.883Z,14.25
2022-10-22T01:39:26.624Z,14.73
2022-10-22T01:41:55.715Z,14.68
2022-10-22T01:44:30.837Z,15.18
2022-10-22T01:47:10.248Z,15.38
2022-10-22T01:50:00.812Z,15.60
2022-10-22T01:52:39.340Z,16.40
2022-10-22T01:55:24.162Z,15.85
2022-10-22T01:58:14.196Z,15.25
2022-10-22T02:00:49.878Z,15.30
2022-10-22T02:03:25.051Z,13.77
2022-10-22T02:05:59.471Z,14.48
2022-10-22T02:08:30.629Z,16.08
2022-10-22T02:10:58.568Z,14.48
2022-10-22T02:13:29.612Z,14.63
2022-10-22T02:18:26.375Z,14.73
2022-10-22T02:20:53.664Z,14.55
2022-10-22T02:23:22.049Z,14.48
2022-10-22T02:25:54.162Z,13.95
2022-10-22T02:28:34.718Z,14.40
2022-10-22T02:31:16.471Z,13.98
2022-10-22T02:33:47.613Z,14.73
2022-10-22T02:36:16.339Z,14.45
2022-10-22T02:38:43.254Z,14.32
2022-10-22T02:41:10.831Z,15.57
2022-10-22T02:43:42.785Z,17.05
2022-10-22T02:46:10.256Z,15.35
2022-10-22T02:48:37.243Z,15.35
2022-10-22T02:51:04.014Z,16.50
2022-10-22T02:53:30.385Z,15.73
2022-10-22T02:55:56.757Z,14.65
2022-10-22T02:58:23.075Z,15.50
2022-10-22T03:00:49.486Z,16.52
2022-10-22T03:03:15.837Z,16.30
2022-10-22T03:05:42.179Z,16.13
2022-10-22T03:08:08.577Z,15.18
2022-10-22T03:10:35.112Z,16.35
2022-10-22T03:13:01.494Z,16.42
2022-10-22T03:17:59.111Z,16.23
2022-10-22T03:20:25.495Z,17.45
2022-10-22T03:22:52.492Z,16.35
2022-10-22T03:25:22.493Z,16.60
2022-10-22T03:27:51.027Z,17.08
2022-10-22T03:30:17.676Z,18.73
2022-10-22T03:32:44.101Z,18.48
2022-10-22T03:35:10.547Z,18.05
2022-10-22T03:37:38.108Z,16.83
2022-10-22T03:40:06.427Z,18.48
2022-10-22T03:42:33.108Z,16.83
2022-10-22T03:44:59.445Z,16.92
2022-10-22T03:47:25.885Z,17.40
2022-10-22T03:49:52.515Z,16.90
2022-10-22T03:52:19.265Z,16.65
2022-10-22T03:54:47.954Z,16.80
2022-10-22T03:57:14.699Z,17.20
2022-10-22T03:59:43.474Z,18.38
2022-10-22T04:02:11.339Z,18.35
2022-10-22T04:04:38.560Z,17.80
2022-10-22T04:07:06.602Z,19.75
2022-10-22T04:09:36.613Z,19.55
2022-10-22T04:12:05.460Z,19.67
2022-10-22T04:14:32.054Z,20.40
2022-10-22T04:16:58.408Z,19.25
2022-10-22T04:19:24.883Z,18.33
2022-10-22T04:21:51.246Z,18.73
2022-10-22T04:24:17.695Z,17.92
2022-10-22T04:26:44.050Z,18.17
2022-10-22T04:29:13.584Z,19.38
2022-10-22T04:31:42.471Z,17.27
2022-10-22T04:34:08.821Z,18.35
2022-10-22T04:36:35.259Z,18.52
2022-10-22T04:39:02.933Z,19.05
2022-10-22T04:41:35.555Z,17.35
2022-10-22T04:44:02.149Z,16.85
2022-10-22T04:46:31.431Z,16.23
2022-10-22T04:48:58.514Z,17.45
2022-10-22T04:51:26.915Z,16.90
2022-10-22T04:53:54.227Z,17.60
2022-10-22T04:56:27.015Z,16.30
2022-10-22T04:58:56.196Z,17.02
2022-10-22T05:01:32.526Z,17.27
2022-10-22T05:04:01.118Z,16.40
2022-10-22T05:06:29.161Z,16.45
2022-10-22T05:08:58.238Z,16.55
2022-10-22T05:11:28.272Z,15.95
2022-10-22T05:13:58.970Z,17.15
2022-10-22T05:16:26.484Z,15.68
2022-10-22T05:18:53.336Z,16.42
2022-10-22T05:21:20.722Z,15.18
2022-10-22T05:23:49.177Z,14.05
2022-10-22T05:26:18.029Z,13.93
2022-10-22T05:28:44.742Z,12.82
2022-10-22T05:31:12.880Z,13.48
2022-10-22T05:33:40.216Z,12.48
2022-10-22T05:36:08.504Z,11.38
2022-10-22T05:38:35.578Z,10.00
2022-10-22T05:41:08.506Z,8.38
2022-10-22T05:43:35.938Z,7.63
2022-10-22T05:46:14.970Z,7.75
2022-10-22T05:48:43.034Z,7.30
2022-10-22T05:51:11.963Z,7.07
2022-10-22T05:53:41.360Z,6.75
2022-10-22T05:56:15.939Z,6.55
2022-10-22T05:58:45.614Z,6.38
2022-10-22T06:01:15.869Z,5.93
2022-10-22T06:03:43.362Z,6.00
2022-10-22T06:06:21.075Z,6.43
2022-10-22T06:08:50.082Z,5.80
2022-10-22T06:11:18.013Z,5.57
2022-10-22T06:13:45.596Z,5.85
2022-10-22T06:16:12.587Z,6.65
2022-10-22T06:18:39.324Z,6.75
2022-10-22T06:21:11.513Z,6.57
2022-10-22T06:23:38.910Z,6.35
2022-10-22T06:26:06.593Z,6.30
2022-10-22T06:28:33.573Z,4.78
2022-10-22T06:31:02.258Z,4.20
2022-10-22T06:33:29.431Z,5.32
2022-10-22T06:35:55.884Z,5.88
2022-10-22T06:38:22.310Z,6.15
2022-10-22T06:40:48.628Z,6.53
2022-10-22T06:43:14.984Z,7.22
2022-10-22T06:45:41.407Z,7.28
2022-10-22T06:48:07.847Z,6.53
2022-10-22T06:50:35.065Z,6.70
2022-10-22T06:53:01.401Z,8.18
2022-10-22T06:55:27.783Z,7.07
2022-10-22T06:57:55.493Z,7.20
2022-10-22T07:00:22.286Z,8.73
2022-10-22T07:02:57.615Z,7.32
2022-10-22T07:05:25.697Z,7.93
2022-10-22T07:07:52.054Z,7.07
2022-10-22T07:10:18.704Z,7.72
2022-10-22T07:12:45.051Z,8.77
2022-10-22T07:15:11.714Z,9.88
2022-10-22T07:20:10.087Z,8.95
2022-10-22T07:22:36.483Z,9.88
2022-10-22T07:25:07.170Z,15.23
2022-10-22T07:27:33.900Z,13.25
2022-10-22T07:30:01.402Z,13.50
2022-10-22T07:32:27.868Z,10.13
2022-10-22T07:34:54.270Z,12.63
2022-10-22T07:37:21.987Z,9.95
2022-10-22T07:39:49.132Z,9.80
2022-10-22T07:42:16.158Z,7.55
2022-10-22T07:44:42.513Z,5.53
2022-10-22T07:47:08.934Z,5.25
2022-10-22T07:49:35.371Z,5.35
2022-10-22T07:52:01.984Z,4.03
2022-10-22T07:54:28.422Z,4.55
2022-10-22T07:56:54.748Z,4.35
2022-10-22T07:59:21.112Z,4.28
2022-10-22T08:01:47.513Z,4.05
2022-10-22T08:04:13.970Z,5.03
2022-10-22T08:06:43.484Z,4.13
2022-10-22T08:09:12.456Z,4.60
2022-10-22T08:11:39.077Z,4.25
2022-10-22T08:14:05.449Z,4.63
2022-10-22T08:16:31.809Z,4.85
2022-10-22T08:18:58.327Z,4.20
2022-10-22T08:21:24.747Z,4.82
2022-10-22T08:23:51.106Z,4.70
2022-10-22T08:26:18.162Z,4.80
2022-10-22T08:28:44.509Z,5.15
2022-10-22T08:31:11.002Z,4.45
2022-10-22T08:33:38.734Z,4.65
2022-10-22T08:36:05.785Z,4.93
2022-10-22T08:38:32.322Z,4.28
2022-10-22T08:41:08.826Z,4.78
2022-10-22T08:43:47.387Z,4.32
2022-10-22T08:46:19.253Z,4.30
2022-10-22T08:48:53.847Z,3.65
2022-10-22T08:51:26.172Z,3.47
2022-10-22T08:54:17.237Z,3.42
2022-10-22T08:56:47.782Z,3.25
2022-10-22T08:59:21.980Z,2.75
2022-10-22T09:01:53.064Z,2.35
2022-10-22T09:04:26.795Z,2.67
2022-10-22T09:06:57.436Z,2.72
2022-10-22T09:09:30.551Z,2.00
2022-10-22T09:11:59.128Z,2.67
2022-10-22T09:14:26.336Z,2.25
2022-10-22T09:17:25.637Z,2.72
2022-10-22T09:20:08.341Z,3.35
2022-10-22T09:23:01.759Z,4.13
2022-10-22T09:25:30.762Z,3.50
2022-10-22T09:27:59.768Z,3.53
2022-10-22T09:30:29.707Z,3.17
2022-10-22T09:33:14.196Z,2.70
2022-10-22T09:35:57.263Z,3.20
2022-10-22T09:38:27.766Z,3.35
2022-10-22T09:40:56.812Z,3.42
2022-10-22T09:43:23.886Z,3.08
2022-10-22T09:45:57.972Z,2.70
2022-10-22T09:48:34.968Z,2.58
2022-10-22T09:51:22.999Z,2.80
2022-10-22T09:56:28.931Z,2.70
2022-10-22T09:58:57.458Z,2.67
2022-10-22T10:01:30.054Z,2.55
2022-10-22T10:04:17.872Z,2.35
2022-10-22T10:06:45.393Z,2.10
2022-10-22T10:09:25.600Z,1.75
2022-10-22T10:12:17.448Z,1.83
2022-10-22T10:15:00.952Z,1.40
2022-10-22T10:17:43.390Z,1.48
2022-10-22T10:20:41.337Z,1.70
2022-10-22T10:23:36.235Z,1.33
2022-10-22T10:26:30.831Z,1.08
2022-10-22T10:29:22.111Z,1.02
2022-10-22T10:32:00.570Z,1.23
2022-10-22T10:34:48.719Z,1.00
2022-10-22T10:37:40.491Z,0.70
2022-10-22T10:40:26.298Z,1.85
2022-10-22T10:42:58.063Z,0.70
2022-10-22T10:45:42.511Z,1.00
2022-10-22T10:48:23.713Z,0.55
2022-10-22T10:50:59.812Z,0.70
2022-10-22T10:54:07.707Z,0.63
2022-10-22T10:56:55.642Z,1.08
2022-10-22T10:59:44.018Z,0.70
2022-10-22T11:02:45.785Z,0.68
2022-10-22T11:05:21.112Z,0.65
2022-10-22T11:07:57.666Z,0.70
2022-10-22T11:10:37.017Z,0.82
2022-10-22T11:13:12.926Z,0.50
2022-10-22T11:15:41.203Z,0.90
2022-10-22T11:18:54.990Z,0.77
2022-10-22T11:21:29.472Z,0.68
2022-10-22T11:24:25.710Z,0.60
2022-10-22T11:27:02.980Z,0.52
2022-10-22T11:29:39.034Z,0.75
2022-10-22T11:32:10.710Z,0.68
2022-10-22T11:34:54.173Z,0.40
2022-10-22T11:37:24.727Z,0.73
2022-10-22T11:39:59.696Z,0.43
2022-10-22T11:42:35.318Z,0.90
2022-10-22T11:45:15.356Z,0.73
2022-10-22T11:47:56.948Z,0.80
2022-10-22T11:50:43.438Z,0.73
2022-10-22T11:53:12.859Z,0.70
2022-10-22T11:55:45.828Z,1.08
2022-10-22T11:58:29.050Z,0.80
2022-10-22T12:01:24.449Z,0.90
2022-10-22T12:04:17.231Z,0.68
2022-10-22T12:06:56.818Z,0.45
2022-10-22T12:09:26.553Z,0.82
2022-10-22T12:11:55.346Z,0.90
2022-10-22T12:14:29.492Z,0.75
2022-10-22T12:16:59.032Z,0.75
2022-10-22T12:19:44.729Z,0.75
2022-10-22T12:22:37.408Z,0.55
2022-10-22T12:25:16.587Z,0.73
2022-10-22T12:27:43.210Z,0.70
2022-10-22T12:30:30.567Z,0.55
2022-10-22T12:33:01.988Z,0.60
2022-10-22T12:35:35.588Z,0.80
2022-10-22T12:38:10.423Z,0.73
2022-10-22T12:40:36.861Z,0.80
2022-10-22T12:43:24.305Z,0.73
2022-10-22T12:45:52.063Z,0.40
2022-10-22T12:48:28.169Z,0.70
2022-10-22T12:50:56.739Z,0.57
2022-10-22T12:53:29.285Z,0.63
2022-10-22T12:56:01.050Z,0.70
2022-10-22T12:58:32.403Z,0.55
2022-10-22T13:01:03.402Z,0.63
2022-10-22T13:03:33.111Z,1.20
2022-10-22T13:06:24.309Z,0.80
2022-10-22T13:08:59.953Z,0.60
2022-10-22T13:11:53.499Z,0.47
2022-10-22T13:17:08.261Z,0.90
2022-10-22T13:19:50.754Z,0.60
2022-10-22T13:22:26.203Z,0.80
2022-10-22T13:24:52.997Z,0.73
2022-10-22T13:27:19.973Z,0.77
2022-10-22T13:29:46.523Z,0.60
2022-10-22T13:32:29.543Z,0.60
2022-10-22T13:35:05.197Z,0.52
2022-10-22T13:37:34.093Z,1.00
2022-10-22T13:40:00.437Z,0.47
2022-10-22T13:42:26.821Z,0.45
2022-10-22T13:44:53.209Z,0.50
2022-10-22T13:47:29.881Z,0.60
2022-10-22T13:49:59.525Z,0.65
2022-10-22T13:52:31.359Z,0.55
2022-10-22T13:54:57.786Z,0.82
2022-10-22T13:57:24.237Z,0.75
2022-10-22T13:59:50.659Z,0.63
2022-10-22T14:02:18.524Z,0.75
2022-10-22T14:04:45.247Z,0.88
2022-10-22T14:07:14.995Z,0.57
2022-10-22T14:09:41.712Z,1.00
2022-10-22T14:12:16.607Z,0.68
2022-10-22T14:14:43.221Z,0.80
2022-10-22T14:17:16.520Z,1.13
2022-10-22T14:19:48.341Z,0.52
2022-10-22T14:22:19.012Z,0.68
2022-10-22T14:24:46.536Z,0.63
2022-10-22T14:27:15.172Z,0.82
2022-10-22T14:29:41.712Z,0.70
2022-10-22T14:32:19.099Z,0.70
2022-10-22T14:34:46.817Z,0.95
2022-10-22T14:37:18.984Z,0.75
2022-10-22T14:39:47.038Z,0.68
2022-10-22T14:42:14.459Z,0.80
2022-10-22T14:44:42.779Z,0.60
2022-10-22T14:47:09.236Z,0.60
2022-10-22T14:49:35.631Z,0.80
2022-10-22T14:52:04.791Z,0.93
2022-10-22T14:54:31.249Z,0.60
2022-10-22T14:56:57.627Z,0.80
2022-10-22T14:59:24.659Z,0.90
2022-10-22T15:01:51.009Z,0.52
2022-10-22T15:04:20.705Z,0.73
2022-10-22T15:06:47.154Z,0.55
2022-10-22T15:09:13.577Z,0.60
2022-10-22T15:11:40.109Z,0.75
2022-10-22T15:14:06.497Z,2.53
2022-10-22T15:16:32.826Z,1.25
2022-10-22T15:18:59.741Z,1.13
2022-10-22T15:21:26.098Z,3.50
2022-10-22T15:23:52.430Z,2.15
2022-10-22T15:26:19.182Z,2.60
2022-10-22T15:28:45.562Z,7.15
2022-10-22T15:31:14.177Z,5.25
2022-10-22T15:33:43.503Z,8.43
2022-10-22T15:36:15.855Z,3.95
2022-10-22T15:38:42.249Z,4.55
2022-10-22T15:41:12.360Z,2.95
2022-10-22T15:43:38.989Z,2.13
2022-10-22T15:46:16.964Z,2.50
2022-10-22T15:48:43.743Z,2.05
2022-10-22T15:51:12.938Z,1.90
2022-10-22T15:53:39.893Z,1.77
2022-10-22T15:56:06.505Z,1.40
2022-10-22T15:58:33.123Z,1.73
2022-10-22T16:01:13.503Z,3.00
2022-10-22T16:03:40.840Z,3.45
2022-10-22T16:06:09.186Z,2.38
2022-10-22T16:08:36.291Z,2.10
2022-10-22T16:11:02.775Z,1.63
2022-10-22T16:13:29.224Z,1.65
2022-10-22T16:15:55.694Z,1.70
2022-10-22T16:18:23.616Z,1.58
2022-10-22T16:20:50.099Z,1.60
2022-10-22T16:23:18.760Z,1.60
2022-10-22T16:25:46.188Z,2.10
2022-10-22T16:28:12.971Z,2.15
2022-10-22T16:30:39.372Z,2.45
2022-10-22T16:33:07.444Z,1.65
2022-10-22T16:35:33.956Z,5.32
2022-10-22T16:38:00.361Z,2.35
2022-10-22T16:40:26.810Z,2.40
2022-10-22T16:42:53.146Z,2.10
2022-10-22T16:45:19.579Z,2.20
2022-10-22T16:47:48.962Z,2.67
2022-10-22T16:50:15.402Z,3.20
2022-10-22T16:52:41.767Z,2.67
2022-10-22T16:55:08.698Z,2.58
2022-10-22T16:57:35.835Z,3.38
2022-10-22T17:00:05.073Z,3.38
2022-10-22T17:02:31.417Z,2.03
2022-10-22T17:04:57.803Z,2.72
2022-10-22T17:07:24.135Z,3.97
2022-10-22T17:09:50.474Z,2.80
2022-10-22T17:12:16.915Z,2.90
2022-10-22T17:14:43.276Z,2.55
2022-10-22T17:17:09.619Z,2.50
2022-10-22T17:19:38.647Z,2.08
2022-10-22T17:22:05.536Z,2.38
2022-10-22T17:24:32.146Z,7.30
2022-10-22T17:26:58.600Z,4.47
2022-10-22T17:29:25.242Z,4.53
2022-10-22T17:31:52.498Z,3.60
2022-10-22T17:34:18.881Z,3.10
2022-10-22T17:36:45.257Z,3.60
2022-10-22T17:39:17.476Z,3.42
2022-10-22T17:41:43.867Z,2.30
2022-10-22T17:44:12.184Z,2.35
2022-10-22T17:46:38.970Z,2.33
2022-10-22T17:49:12.372Z,2.35
2022-10-22T17:51:38.766Z,2.63
2022-10-22T17:54:07.432Z,2.63
2022-10-22T17:56:39.964Z,3.50
2022-10-22T17:59:08.533Z,3.53
2022-10-22T18:01:37.591Z,3.22
2022-10-22T18:04:06.415Z,2.95
2022-10-22T18:06:32.897Z,3.42
2022-10-22T18:08:59.512Z,3.55
2022-10-22T18:11:27.464Z,2.88
2022-10-22T18:13:56.683Z,3.20
2022-10-22T18:16:23.879Z,2.95
2022-10-22T18:18:53.097Z,3.20
2022-10-22T18:21:20.708Z,2.58
2022-10-22T18:23:47.561Z,3.85
2022-10-22T18:26:14.880Z,4.40
2022-10-22T18:28:41.361Z,3.10
2022-10-22T18:31:13.664Z,2.90
2022-10-22T18:33:40.714Z,3.58
2022-10-22T18:36:21.612Z,3.83
2022-10-22T18:38:57.599Z,4.03
2022-10-22T18:41:24.524Z,4.88
2022-10-22T18:44:12.429Z,3.72
2022-10-22T18:46:39.608Z,4.07
2022-10-22T18:49:07.075Z,6.50
2022-10-22T18:51:34.624Z,3.65
2022-10-22T18:54:06.035Z,4.80
2022-10-22T18:56:48.031Z,9.70
2022-10-22T18:59:22.016Z,6.35
2022-10-22T19:01:48.965Z,5.72
2022-10-22T19:04:15.568Z,5.72
2022-10-22T19:06:45.398Z,6.50
2022-10-22T19:09:16.114Z,5.20
2022-10-22T19:11:44.392Z,4.90
2022-10-22T19:14:11.189Z,4.57
2022-10-22T19:16:38.693Z,4.05
2022-10-22T19:19:06.638Z,3.90
2022-10-22T19:21:33.878Z,4.13
2022-10-22T19:24:01.179Z,3.63
2022-10-22T19:26:29.732Z,4.30
2022-10-22T19:28:58.003Z,3.90
2022-10-22T19:31:26.185Z,3.67
2022-10-22T19:33:54.571Z,4.63
2022-10-22T19:36:24.209Z,4.22
2022-10-22T19:38:51.137Z,4.63
2022-10-22T19:41:19.797Z,14.07
2022-10-22T19:43:49.912Z,8.45
2022-10-22T19:46:17.040Z,7.82
2022-10-22T19:51:18.882Z,6.30
2022-10-22T19:53:45.435Z,6.28
2022-10-22T19:56:12.346Z,6.43
2022-10-22T19:58:38.973Z,5.75
2022-10-22T20:01:09.925Z,6.28
2022-10-22T20:03:37.677Z,6.88
2022-10-22T20:06:05.951Z,5.65
2022-10-22T20:08:37.686Z,5.20
2022-10-22T20:11:06.889Z,5.22
2022-10-22T20:13:34.795Z,5.70
2022-10-22T20:16:01.358Z,6.40
2022-10-22T20:18:28.750Z,6.40
2022-10-22T20:20:55.289Z,6.55
2022-10-22T20:23:21.734Z,6.35
2022-10-22T20:25:48.415Z,6.28
2022-10-22T20:28:15.345Z,6.30
2022-10-22T20:30:45.564Z,6.53
2022-10-22T20:33:12.412Z,6.38
2022-10-22T20:35:39.464Z,8.07
2022-10-22T20:38:07.922Z,7.30
2022-10-22T20:40:36.217Z,7.22
2022-10-22T20:43:02.565Z,6.93
2022-10-22T20:45:29.108Z,6.82
2022-10-22T20:48:02.620Z,7.88
2022-10-22T20:50:31.914Z,7.78
2022-10-22T20:52:58.899Z,6.57
2022-10-22T20:55:25.581Z,7.57
2022-10-22T20:57:52.028Z,7.30
2022-10-22T21:00:18.403Z,7.57
2022-10-22T21:02:44.821Z,7.40
2022-10-22T21:05:11.269Z,7.85
2022-10-22T21:07:37.637Z,8.10
2022-10-22T21:10:04.531Z,7.45
2022-10-22T21:12:30.858Z,8.20
2022-10-22T21:14:57.162Z,8.25
2022-10-22T21:17:23.502Z,9.02
2022-10-22T21:19:49.951Z,8.75
2022-10-22T21:22:16.336Z,9.82
2022-10-22T21:24:42.878Z,9.63
2022-10-22T21:27:09.298Z,10.07
2022-10-22T21:29:35.658Z,9.43
2022-10-22T21:32:01.996Z,10.48
2022-10-22T21:34:28.407Z,9.68
2022-10-22T21:36:54.823Z,12.43
2022-10-22T21:39:21.212Z,11.50
2022-10-22T21:41:47.634Z,12.07
2022-10-22T21:44:14.075Z,11.68
2022-10-22T21:46:40.421Z,13.18
2022-10-22T21:49:06.788Z,14.07
2022-10-22T21:51:35.252Z,15.25
2022-10-22T21:54:01.810Z,15.25
2022-10-22T21:56:32.650Z,14.38
2022-10-22T21:59:00.240Z,18.65
2022-10-22T22:01:27.995Z,17.27
2022-10-22T22:03:54.578Z,19.58
2022-10-22T22:06:23.549Z,18.30
2022-10-22T22:08:52.419Z,22.88
2022-10-22T22:11:22.609Z,23.70
2022-10-22T22:13:49.124Z,24.45
2022-10-22T22:16:28.638Z,23.88
2022-10-22T22:19:00.200Z,21.52
2022-10-22T22:21:26.820Z,16.90
2022-10-22T22:23:53.932Z,17.63
2022-10-22T22:26:26.649Z,20.98
2022-10-22T22:28:56.700Z,17.42
2022-10-22T22:31:34.674Z,17.02
2022-10-22T22:34:08.676Z,29.25
2022-10-22T22:36:38.653Z,14.15
2022-10-22T22:39:06.721Z,21.48
2022-10-22T22:41:33.120Z,18.38
2022-10-22T22:43:59.842Z,16.38
2022-10-22T22:46:26.262Z,20.48
2022-10-22T22:48:52.641Z,22.55
2022-10-22T22:51:19.106Z,21.05
2022-10-22T22:53:45.857Z,20.30
2022-10-22T22:56:27.783Z,25.58
2022-10-22T22:58:54.650Z,18.60
2022-10-22T23:01:24.393Z,17.77
2022-10-22T23:03:55.496Z,24.27
2022-10-22T23:08:50.313Z,19.70
2022-10-22T23:11:16.718Z,25.63
2022-10-22T23:13:43.731Z,29.52
2022-10-22T23:16:16.861Z,16.33
2022-10-22T23:18:44.720Z,28.25
2022-10-22T23:21:19.649Z,28.80
2022-10-22T23:23:48.852Z,31.40
2022-10-22T23:26:19.013Z,27.23
2022-10-22T23:28:45.418Z,22.77
2022-10-22T23:31:17.120Z,31.67
2022-10-22T23:33:43.886Z,34.40
2022-10-22T23:36:11.383Z,21.20
2022-10-22T23:38:39.159Z,31.13
2022-10-22T23:41:06.255Z,42.10
2022-10-22T23:43:36.068Z,24.65
2022-10-22T23:46:04.251Z,24.15
2022-10-22T23:48:30.895Z,20.92
2022-10-22T23:50:57.314Z,30.52
2022-10-22T23:53:23.729Z,34.42
2022-10-22T23:55:50.107Z,24.15
2022-10-22T23:58:17.195Z,32.15
